Time;durP1;ratioP1;P1;durP2;ratioP2;P2;SDS_P1;SDS_P2;PMS_P1;PMS_P2;Temp;Humidity;BMP_temperature;BMP_pressure;BME280_temperature;BME280_humidity;BME280_pressure;Samples;Min_cycle;Max_cycle;Signal;HPM_P1;HPM_P2
2021/11/02 00:00:50;;;;;;;5.07;2.73;;;8.40;94.50;;;;;;4947381;29;20923;-75
2021/11/02 00:03:16;;;;;;;6.37;2.60;;;8.40;94.50;;;;;;4955943;28;20455;-72
2021/11/02 00:05:42;;;;;;;5.73;2.53;;;8.50;94.40;;;;;;4950865;29;20890;-71
2021/11/02 00:08:07;;;;;;;4.60;2.50;;;8.50;94.40;;;;;;4949689;28;20198;-72
2021/11/02 00:10:33;;;;;;;6.07;3.40;;;8.50;94.30;;;;;;4944859;29;20194;-74
2021/11/02 00:12:59;;;;;;;4.03;2.60;;;8.60;94.20;;;;;;4948490;29;20199;-73
2021/11/02 00:15:27;;;;;;;7.30;2.77;;;8.60;94.10;;;;;;4954444;28;20984;-73
2021/11/02 00:17:57;;;;;;;8.33;2.70;;;8.70;94.10;;;;;;4945092;29;20224;-73
2021/11/02 00:20:23;;;;;;;5.73;3.23;;;8.70;94.00;;;;;;4962544;29;20439;-74
2021/11/02 00:22:54;;;;;;;6.37;2.90;;;8.60;94.10;;;;;;4960066;29;20427;-73
2021/11/02 00:25:22;;;;;;;4.17;3.10;;;8.70;94.10;;;;;;4954941;28;20245;-74
2021/11/02 00:27:49;;;;;;;3.47;2.53;;;8.70;94.00;;;;;;4953879;29;20439;-75
2021/11/02 00:30:15;;;;;;;6.30;3.13;;;8.80;93.90;;;;;;4954989;28;20456;-73
2021/11/02 00:32:43;;;;;;;4.80;2.50;;;8.80;93.80;;;;;;4955880;29;21014;-73
2021/11/02 00:35:13;;;;;;;4.37;2.60;;;8.80;93.70;;;;;;4952212;28;20930;-74
2021/11/02 00:37:39;;;;;;;4.80;2.93;;;8.80;93.80;;;;;;4954899;29;20989;-74
2021/11/02 00:40:07;;;;;;;6.00;2.87;;;8.80;93.80;;;;;;4954676;28;20554;-74
2021/11/02 00:42:38;;;;;;;2.67;2.30;;;8.80;93.80;;;;;;4950120;29;20903;-75
2021/11/02 00:45:07;;;;;;;5.67;3.27;;;8.90;93.60;;;;;;4953214;28;20540;-74
2021/11/02 00:47:33;;;;;;;4.33;2.80;;;9.00;93.50;;;;;;4954267;28;21131;-74
2021/11/02 00:50:01;;;;;;;4.47;2.60;;;9.00;93.30;;;;;;4950183;29;20945;-76
2021/11/02 00:52:29;;;;;;;7.33;3.17;;;9.00;93.20;;;;;;4953501;28;20435;-73
2021/11/02 00:54:55;;;;;;;6.90;3.10;;;9.00;93.40;;;;;;4953024;29;20509;-74
2021/11/02 00:57:22;;;;;;;3.70;2.90;;;9.00;93.20;;;;;;4954105;29;20435;-76
2021/11/02 00:59:48;;;;;;;3.60;2.43;;;9.10;93.00;;;;;;4954343;29;20424;-73
2021/11/02 01:02:14;;;;;;;4.97;1.83;;;9.10;92.90;;;;;;4953913;28;20430;-73
2021/11/02 01:04:40;;;;;;;3.33;1.87;;;9.20;92.10;;;;;;4953844;28;20450;-75
2021/11/02 01:07:06;;;;;;;3.77;1.80;;;9.40;91.10;;;;;;4947814;29;20443;-76
2021/11/02 01:09:32;;;;;;;4.83;1.80;;;9.50;90.40;;;;;;4953768;29;20275;-75
2021/11/02 01:11:58;;;;;;;2.50;1.60;;;9.70;89.70;;;;;;4954006;29;20431;-74
2021/11/02 01:14:24;;;;;;;2.83;2.10;;;9.80;89.20;;;;;;4951866;28;20481;-75
2021/11/02 01:16:50;;;;;;;5.60;2.03;;;9.90;87.80;;;;;;4954003;29;20210;-74
2021/11/02 01:19:16;;;;;;;3.57;1.57;;;10.00;87.60;;;;;;4951475;28;20666;-74
2021/11/02 01:21:42;;;;;;;2.47;1.53;;;10.00;87.30;;;;;;4953848;29;20432;-75
2021/11/02 01:24:07;;;;;;;4.90;1.87;;;10.10;87.30;;;;;;4952169;28;20211;-76
2021/11/02 01:26:33;;;;;;;1.80;1.60;;;10.00;87.30;;;;;;4953074;29;20623;-74
2021/11/02 01:28:59;;;;;;;4.40;1.90;;;10.10;87.10;;;;;;4954607;28;20215;-74
2021/11/02 01:31:25;;;;;;;4.10;1.70;;;10.10;87.00;;;;;;4953344;29;20219;-74
2021/11/02 01:33:50;;;;;;;3.10;2.07;;;10.10;87.00;;;;;;4952574;28;20187;-74
2021/11/02 01:36:16;;;;;;;5.60;2.43;;;10.00;88.00;;;;;;4954167;28;20258;-74
2021/11/02 01:38:42;;;;;;;4.00;2.30;;;10.00;88.60;;;;;;4949043;29;20628;-74
2021/11/02 01:41:08;;;;;;;4.00;2.00;;;10.00;88.90;;;;;;4954333;28;20566;-74
2021/11/02 01:43:34;;;;;;;2.63;2.10;;;10.10;89.00;;;;;;4953329;29;20638;-74
2021/11/02 01:46:03;;;;;;;5.83;2.23;;;10.10;88.90;;;;;;4949108;28;20507;-74
2021/11/02 01:48:29;;;;;;;6.33;2.10;;;10.00;88.60;;;;;;4948675;29;20576;-76
2021/11/02 01:50:54;;;;;;;5.30;1.80;;;10.00;89.00;;;;;;4954551;28;20511;-73
2021/11/02 01:53:20;;;;;;;3.27;2.40;;;9.90;89.60;;;;;;4954771;28;20458;-73
2021/11/02 01:55:46;;;;;;;10.70;2.47;;;9.90;89.90;;;;;;4950976;29;20258;-73
2021/11/02 01:58:14;;;;;;;3.87;2.50;;;9.80;90.00;;;;;;4954669;29;20254;-74
2021/11/02 02:00:43;;;;;;;4.00;2.77;;;9.80;89.90;;;;;;4954606;29;20468;-75
2021/11/02 02:03:27;;;;;;;5.13;2.30;;;9.70;90.20;;;;;;4953642;28;20432;-74
2021/11/02 02:06:18;;;;;;;3.33;2.23;;;9.70;90.30;;;;;;4956224;28;20443;-73
2021/11/02 02:09:03;;;;;;;7.43;2.90;;;9.70;90.30;;;;;;4958221;29;20416;-73
2021/11/02 02:12:13;;;;;;;3.43;1.87;;;9.70;89.90;;;;;;4957114;28;20466;-74
2021/11/02 02:14:48;;;;;;;2.80;1.60;;;9.70;88.70;;;;;;4949930;28;20447;-73
2021/11/02 02:17:22;;;;;;;4.33;1.90;;;9.70;88.70;;;;;;4956820;28;20449;-73
2021/11/02 02:19:51;;;;;;;3.87;1.60;;;9.70;88.10;;;;;;4953706;29;20435;-73
2021/11/02 02:22:29;;;;;;;3.47;1.80;;;9.70;88.90;;;;;;4957963;28;20439;-74
2021/11/02 02:25:32;;;;;;;3.90;1.50;;;9.60;89.60;;;;;;4950721;28;20495;-74
2021/11/02 02:28:09;;;;;;;1.87;1.40;;;9.60;89.60;;;;;;4947558;29;20444;-74
2021/11/02 02:30:41;;;;;;;3.87;1.70;;;9.50;89.90;;;;;;4946834;29;20443;-75
2021/11/02 02:33:10;;;;;;;2.63;1.87;;;9.50;89.90;;;;;;4952548;29;20521;-72
2021/11/02 02:35:37;;;;;;;2.20;1.57;;;9.60;89.90;;;;;;4955015;28;20973;-73
2021/11/02 02:38:04;;;;;;;2.93;1.80;;;9.60;89.90;;;;;;4957728;28;20467;-74
2021/11/02 02:40:31;;;;;;;4.03;1.37;;;9.70;89.60;;;;;;4955103;28;20434;-73
2021/11/02 02:42:59;;;;;;;3.13;1.40;;;9.60;88.70;;;;;;4955900;28;20438;-76
2021/11/02 02:45:26;;;;;;;2.60;1.60;;;9.60;88.40;;;;;;4954378;29;20458;-75
2021/11/02 02:47:53;;;;;;;8.93;1.47;;;9.60;88.70;;;;;;4956217;28;20911;-75
2021/11/02 02:50:20;;;;;;;2.33;1.37;;;9.60;88.90;;;;;;4955819;28;20435;-74
2021/11/02 02:52:46;;;;;;;6.67;1.97;;;9.50;89.20;;;;;;4954330;28;20989;-73
2021/11/02 02:55:14;;;;;;;2.53;1.73;;;9.50;89.60;;;;;;4949074;29;20542;-73
2021/11/02 02:57:40;;;;;;;3.17;1.60;;;9.40;89.60;;;;;;4949831;29;20222;-74
2021/11/02 03:00:09;;;;;;;2.77;1.63;;;9.40;89.90;;;;;;4953307;29;21042;-74
2021/11/02 03:02:36;;;;;;;2.83;1.60;;;9.40;90.00;;;;;;4955307;29;20453;-74
2021/11/02 03:05:05;;;;;;;4.83;2.00;;;9.40;90.10;;;;;;4954875;29;20439;-74
2021/11/02 03:07:31;;;;;;;3.17;1.60;;;9.40;90.00;;;;;;4949180;29;20435;-75
2021/11/02 03:09:57;;;;;;;3.33;1.57;;;9.40;89.90;;;;;;4955025;29;20968;-74
2021/11/02 03:12:34;;;;;;;3.67;2.30;;;9.40;89.90;;;;;;4954076;28;20442;-74
2021/11/02 03:44:24;;;;;;;3.70;1.73;;;8.90;91.60;;;;;;4954592;28;20438;-76
2021/11/02 03:49:30;;;;;;;4.90;2.40;;;8.70;91.70;;;;;;4958648;29;20501;-77
2021/11/02 03:54:29;;;;;;;2.87;1.80;;;8.70;91.90;;;;;;4950707;28;20459;-76
2021/11/02 03:54:45;;;;;;;5.53;1.93;;;8.60;92.10;;;;;;4948007;28;20452;-77
2021/11/02 04:24:52;;;;;;;5.47;2.13;;;8.30;92.60;;;;;;4952587;28;20482;-74
2021/11/02 05:13:39;;;;;;;5.57;2.07;;;7.70;94.20;;;;;;4955453;29;20550;-74
2021/11/02 05:59:39;;;;;;;4.23;2.20;;;7.10;95.40;;;;;;4940533;29;20212;-75
2021/11/02 06:08:17;;;;;;;5.13;2.37;;;7.00;95.70;;;;;;4992680;28;20907;-76
2021/11/02 06:33:44;;;;;;;4.73;2.60;;;6.70;96.10;;;;;;4930232;29;20567;-74
2021/11/02 08:47:28;;;;;;;6.37;2.23;;;10.10;85.00;;;;;;4955531;28;20419;-74
2021/11/02 08:49:54;;;;;;;4.17;1.30;;;10.20;85.50;;;;;;4950659;29;20510;-73
2021/11/02 08:52:21;;;;;;;3.20;1.63;;;10.40;85.70;;;;;;4952910;28;20456;-74
2021/11/02 08:54:49;;;;;;;5.40;1.80;;;10.50;85.70;;;;;;4952533;29;20211;-75
2021/11/02 08:57:17;;;;;;;3.53;1.70;;;10.40;85.00;;;;;;4954119;29;20499;-73
2021/11/02 08:59:44;;;;;;;2.57;1.40;;;10.40;85.20;;;;;;4954305;29;20467;-74
2021/11/02 09:02:12;;;;;;;2.43;1.40;;;10.50;85.70;;;;;;4949625;29;20424;-75
2021/11/02 09:04:47;;;;;;;3.00;1.57;;;10.50;85.30;;;;;;4953880;29;20436;-77
2021/11/02 09:07:22;;;;;;;4.07;1.63;;;10.50;85.30;;;;;;4951679;29;20985;-75
2021/11/02 09:09:49;;;;;;;2.70;1.30;;;10.70;85.20;;;;;;4954087;29;20556;-76
2021/11/02 09:12:16;;;;;;;2.93;1.53;;;10.60;84.30;;;;;;4953498;28;20945;-74
2021/11/02 09:14:45;;;;;;;5.63;1.73;;;10.30;86.20;;;;;;4953374;28;20814;-75
2021/11/02 09:17:13;;;;;;;6.23;1.50;;;10.20;87.60;;;;;;4953600;28;20496;-74
2021/11/02 09:19:39;;;;;;;3.27;1.40;;;10.10;88.90;;;;;;4953279;29;20481;-75
2021/11/02 09:22:21;;;;;;;2.50;1.70;;;10.00;89.30;;;;;;4952082;29;20447;-77
2021/11/02 09:24:47;;;;;;;4.60;2.07;;;9.90;89.90;;;;;;4949581;28;20622;-77
2021/11/02 09:27:14;;;;;;;3.60;1.83;;;9.80;90.50;;;;;;4953581;28;20427;-75
2021/11/02 09:29:40;;;;;;;1.93;1.63;;;9.70;90.80;;;;;;4953212;29;20426;-76
2021/11/02 09:32:08;;;;;;;6.07;1.80;;;9.60;91.20;;;;;;4950401;28;20514;-75
2021/11/02 09:34:35;;;;;;;4.30;2.10;;;9.50;91.20;;;;;;4952378;28;21300;-76
2021/11/02 09:37:19;;;;;;;3.70;1.77;;;9.30;91.70;;;;;;4951728;29;20424;-75
2021/11/02 09:39:54;;;;;;;3.93;1.80;;;9.20;92.40;;;;;;4945564;29;20463;-75
2021/11/02 09:42:32;;;;;;;2.70;1.87;;;9.10;93.20;;;;;;4951398;28;20427;-74
2021/11/02 09:45:08;;;;;;;3.77;2.20;;;9.10;93.40;;;;;;4947717;28;20519;-75
2021/11/02 09:47:43;;;;;;;5.37;2.70;;;9.10;92.90;;;;;;4957522;28;20432;-74
2021/11/02 09:50:26;;;;;;;5.87;1.90;;;9.10;93.20;;;;;;4950520;29;20474;-76
2021/11/02 09:53:13;;;;;;;6.60;2.30;;;9.10;93.40;;;;;;4954408;28;20427;-74
2021/11/02 09:56:16;;;;;;;5.03;3.10;;;9.10;93.20;;;;;;4951864;29;20435;-76
2021/11/02 09:59:03;;;;;;;7.03;2.47;;;9.00;92.80;;;;;;4947646;28;20469;-75
2021/11/02 10:01:32;;;;;;;5.23;2.03;;;9.00;93.00;;;;;;4951548;28;20423;-75
2021/11/02 10:04:42;;;;;;;6.50;3.00;;;9.00;92.80;;;;;;4950797;29;20422;-75
2021/11/02 10:07:36;;;;;;;4.20;2.10;;;9.10;93.10;;;;;;4950995;28;20431;-75
2021/11/02 10:10:11;;;;;;;3.47;2.17;;;9.10;92.80;;;;;;4950395;29;20432;-74
2021/11/02 10:13:01;;;;;;;6.03;2.70;;;9.10;92.40;;;;;;4947982;28;20954;-74
2021/11/02 10:15:43;;;;;;;6.37;2.00;;;9.10;92.70;;;;;;4952467;28;20435;-74
2021/11/02 10:18:31;;;;;;;6.50;2.10;;;9.20;92.90;;;;;;4942933;29;20525;-74
2021/11/02 10:21:11;;;;;;;6.63;2.10;;;9.30;92.80;;;;;;4948679;28;20844;-74
2021/11/02 10:24:01;;;;;;;3.37;1.93;;;9.30;92.90;;;;;;4945934;29;21131;-74
2021/11/02 10:26:54;;;;;;;3.50;2.27;;;9.30;93.00;;;;;;4952609;28;20419;-72
2021/11/02 10:29:57;;;;;;;5.20;2.17;;;9.30;92.50;;;;;;4952469;29;20423;-72
2021/11/02 10:32:28;;;;;;;14.27;4.03;;;9.10;93.40;;;;;;4948050;28;20498;-73
2021/11/02 10:35:10;;;;;;;5.23;2.43;;;9.10;93.70;;;;;;4954217;28;20494;-75
2021/11/02 10:37:53;;;;;;;2.87;1.67;;;9.10;94.00;;;;;;4946785;29;20423;-75
2021/11/02 10:40:25;;;;;;;4.33;2.47;;;9.10;94.20;;;;;;4951238;29;20443;-74
2021/11/02 10:43:12;;;;;;;4.20;1.73;;;9.10;94.30;;;;;;4954983;29;20411;-76
2021/11/02 10:45:48;;;;;;;3.13;1.90;;;9.10;94.20;;;;;;4962434;28;20463;-75
2021/11/02 10:48:19;;;;;;;3.73;2.20;;;9.00;94.10;;;;;;4968134;28;20459;-73
2021/11/02 10:50:47;;;;;;;4.80;1.77;;;9.00;94.50;;;;;;4956456;28;20420;-73
2021/11/02 10:53:30;;;;;;;5.10;2.20;;;9.00;94.70;;;;;;4954373;28;20435;-72
2021/11/02 10:56:27;;;;;;;4.27;2.00;;;9.00;94.50;;;;;;4951227;28;20478;-73
2021/11/02 10:58:59;;;;;;;5.73;2.30;;;9.10;94.70;;;;;;4951691;29;20836;-72
2021/11/02 11:01:28;;;;;;;4.13;2.00;;;9.20;94.70;;;;;;4956264;29;20418;-73
2021/11/02 11:03:56;;;;;;;2.87;1.80;;;9.20;94.50;;;;;;4950814;28;20423;-72
2021/11/02 11:06:24;;;;;;;4.00;1.90;;;9.30;94.20;;;;;;4956366;28;20428;-73
2021/11/02 11:08:51;;;;;;;4.17;2.00;;;9.30;94.50;;;;;;4950305;29;20455;-73
2021/11/02 11:11:20;;;;;;;8.20;2.10;;;9.40;94.40;;;;;;4956496;28;20441;-75
2021/11/02 11:13:48;;;;;;;2.10;1.67;;;9.40;93.30;;;;;;4949069;29;20494;-73
2021/11/02 11:16:18;;;;;;;4.87;1.90;;;9.40;93.30;;;;;;4956886;28;20910;-75
2021/11/02 11:19:34;;;;;;;1.87;1.70;;;9.50;93.40;;;;;;4956493;28;20470;-72
2021/11/02 11:22:00;;;;;;;5.03;2.23;;;9.50;92.60;;;;;;4963909;28;20439;-75
2021/11/02 11:24:31;;;;;;;3.50;1.87;;;9.50;92.80;;;;;;4957408;28;20939;-73
2021/11/02 11:27:02;;;;;;;3.13;2.00;;;9.60;93.30;;;;;;4974370;28;20479;-75
2021/11/02 11:29:29;;;;;;;3.07;2.07;;;9.70;93.10;;;;;;4967768;28;20426;-74
2021/11/02 11:31:57;;;;;;;3.07;1.83;;;9.80;93.00;;;;;;4972894;28;20441;-73
2021/11/02 11:34:32;;;;;;;3.30;2.30;;;9.90;92.10;;;;;;4970791;28;20557;-72
2021/11/02 11:37:00;;;;;;;3.80;2.00;;;10.00;92.00;;;;;;4973371;28;20426;-72
2021/11/02 11:39:28;;;;;;;3.63;2.03;;;10.10;92.00;;;;;;4948998;28;21003;-73
2021/11/02 11:41:55;;;;;;;2.90;1.57;;;10.10;91.30;;;;;;4973324;28;20485;-75
2021/11/02 11:44:22;;;;;;;2.27;1.50;;;10.20;91.00;;;;;;4971276;28;20447;-73
2021/11/02 11:47:08;;;;;;;4.60;2.37;;;10.30;90.70;;;;;;4972823;28;20427;-73
2021/11/02 11:49:36;;;;;;;1.90;1.50;;;10.40;90.20;;;;;;4958201;28;20423;-73
2021/11/02 11:52:04;;;;;;;3.30;2.03;;;10.70;90.30;;;;;;4966786;28;20438;-73
2021/11/02 11:54:43;;;;;;;4.63;1.90;;;10.90;89.30;;;;;;4965371;28;20453;-74
2021/11/02 11:57:08;;;;;;;2.07;1.40;;;11.10;88.60;;;;;;4956319;28;20526;-75
2021/11/02 11:59:35;;;;;;;2.50;1.60;;;11.20;87.70;;;;;;4955589;29;20585;-76
2021/11/02 12:02:08;;;;;;;2.47;1.77;;;11.20;87.00;;;;;;4954306;28;20192;-75
2021/11/02 12:04:47;;;;;;;2.77;1.70;;;11.20;87.10;;;;;;4951559;28;21363;-73
2021/11/02 12:07:31;;;;;;;2.63;1.50;;;11.30;87.00;;;;;;4952091;29;20423;-73
2021/11/02 12:10:06;;;;;;;2.87;1.63;;;11.30;86.90;;;;;;4951387;29;20424;-74
2021/11/02 12:12:34;;;;;;;4.57;1.43;;;11.20;87.00;;;;;;4952685;28;20743;-74
2021/11/02 12:15:06;;;;;;;1.80;1.30;;;11.10;88.00;;;;;;4954503;28;20462;-74
2021/11/02 12:17:33;;;;;;;3.83;1.73;;;11.00;87.80;;;;;;4953763;29;20458;-72
2021/11/02 12:20:07;;;;;;;5.10;1.43;;;10.90;88.10;;;;;;4954922;29;20480;-72
2021/11/02 12:22:39;;;;;;;1.97;1.07;;;10.80;89.30;;;;;;4948409;28;20443;-72
2021/11/02 12:25:10;;;;;;;2.30;1.10;;;10.50;88.60;;;;;;4954436;28;20452;-73
2021/11/02 12:27:39;;;;;;;1.43;1.00;;;10.40;89.90;;;;;;4947725;29;20451;-72
2021/11/02 12:30:13;;;;;;;1.37;1.00;;;10.30;91.10;;;;;;4953804;29;20436;-74
2021/11/02 12:32:47;;;;;;;1.03;0.77;;;10.20;90.30;;;;;;4943327;29;20479;-74
2021/11/02 12:35:38;;;;;;;1.10;1.03;;;10.20;90.00;;;;;;4954992;28;20446;-74
2021/11/02 12:38:05;;;;;;;1.97;1.07;;;10.20;90.20;;;;;;4953894;28;20563;-72
2021/11/02 12:40:35;;;;;;;1.87;1.00;;;10.20;90.20;;;;;;4952732;29;20506;-73
2021/11/02 12:43:00;;;;;;;0.93;0.90;;;10.30;89.00;;;;;;4950158;29;20440;-73
2021/11/02 12:45:34;;;;;;;1.60;0.90;;;10.30;89.30;;;;;;4951434;29;20479;-72
2021/11/02 12:48:06;;;;;;;2.30;0.87;;;10.30;87.80;;;;;;4956646;28;20414;-73
2021/11/02 12:50:36;;;;;;;2.60;0.90;;;10.40;87.80;;;;;;4954381;29;20416;-72
2021/11/02 12:53:03;;;;;;;1.20;0.80;;;10.40;86.90;;;;;;4949286;28;20951;-75
2021/11/02 12:55:30;;;;;;;1.83;1.03;;;10.50;86.30;;;;;;4950607;28;20494;-73
2021/11/02 12:58:05;;;;;;;1.77;0.90;;;10.60;86.60;;;;;;4954277;28;20851;-74
2021/11/02 13:00:41;;;;;;;1.20;0.80;;;10.70;84.00;;;;;;4945782;29;20451;-74
2021/11/02 13:03:16;;;;;;;1.67;0.83;;;10.80;83.30;;;;;;4944267;29;20427;-73
2021/11/02 13:05:53;;;;;;;1.13;0.70;;;11.00;83.70;;;;;;4950838;28;20446;-75
2021/11/02 13:08:21;;;;;;;1.83;0.80;;;11.50;82.80;;;;;;4943108;29;20420;-73
2021/11/02 13:10:48;;;;;;;1.37;0.80;;;11.70;79.50;;;;;;4948230;29;20427;-73
2021/11/02 13:13:16;;;;;;;1.37;0.70;;;11.60;80.20;;;;;;4954357;28;20427;-74
2021/11/02 13:15:53;;;;;;;0.90;0.70;;;11.70;79.50;;;;;;4949230;28;20473;-73
2021/11/02 13:18:34;;;;;;;0.90;0.80;;;11.70;79.30;;;;;;4953440;28;20538;-73
2021/11/02 13:21:19;;;;;;;3.17;1.00;;;11.60;79.60;;;;;;4953335;29;20474;-73
2021/11/02 13:23:52;;;;;;;1.40;0.70;;;11.30;79.20;;;;;;4953754;29;20427;-73
2021/11/02 13:26:22;;;;;;;0.90;0.77;;;11.10;80.80;;;;;;4946162;29;20519;-73
2021/11/02 13:28:49;;;;;;;1.43;0.90;;;11.10;81.50;;;;;;4947308;28;20449;-75
2021/11/02 13:31:45;;;;;;;2.33;1.00;;;11.00;80.90;;;;;;4951246;29;20420;-73
2021/11/02 13:34:16;;;;;;;1.00;0.70;;;10.90;81.10;;;;;;4981978;28;20461;-77
2021/11/02 13:36:43;;;;;;;1.47;0.60;;;10.90;80.20;;;;;;4985733;28;20415;-73
2021/11/02 13:39:14;;;;;;;0.90;0.67;;;10.80;81.10;;;;;;4987353;28;20473;-75
2021/11/02 13:41:51;;;;;;;1.33;0.70;;;10.80;81.40;;;;;;4975519;28;20435;-73
2021/11/02 13:44:19;;;;;;;0.77;0.53;;;10.70;81.70;;;;;;4987435;28;20529;-72
2021/11/02 13:46:46;;;;;;;1.70;0.70;;;10.70;82.50;;;;;;4981834;28;20488;-74
2021/11/02 13:49:15;;;;;;;0.90;0.90;;;10.70;83.10;;;;;;4988585;28;20463;-73
2021/11/02 13:51:41;;;;;;;0.70;0.70;;;10.80;83.60;;;;;;4988375;28;20528;-72
2021/11/02 13:54:09;;;;;;;1.27;0.80;;;10.80;82.70;;;;;;4987961;28;20720;-73
2021/11/02 13:56:37;;;;;;;1.40;0.90;;;10.80;82.70;;;;;;4987336;28;20508;-73
2021/11/02 13:59:06;;;;;;;0.60;0.50;;;10.70;82.80;;;;;;4982524;28;20469;-75
2021/11/02 14:01:34;;;;;;;2.10;0.70;;;10.60;81.50;;;;;;4977964;28;20429;-72
2021/11/02 14:04:17;;;;;;;1.43;0.70;;;10.50;81.70;;;;;;4988437;28;20429;-74
2021/11/02 14:06:55;;;;;;;1.23;0.80;;;10.50;81.40;;;;;;4989727;28;20500;-73
2021/11/02 14:09:31;;;;;;;0.70;0.60;;;10.60;81.50;;;;;;4995830;28;20520;-75
2021/11/02 14:12:18;;;;;;;0.90;0.60;;;10.60;80.20;;;;;;4957059;29;20462;-73
2021/11/02 14:14:44;;;;;;;1.30;0.70;;;10.70;80.20;;;;;;4957743;29;20483;-72
2021/11/02 14:17:20;;;;;;;0.77;0.60;;;11.00;79.00;;;;;;4908716;29;1337206;-73
2021/11/02 14:19:52;;;;;;;3.50;0.90;;;11.20;77.60;;;;;;4955961;29;20204;-73
2021/11/02 14:22:46;;;;;;;1.13;0.70;;;11.30;77.40;;;;;;4962795;29;20427;-72
2021/11/02 14:25:22;;;;;;;2.30;0.80;;;11.40;76.10;;;;;;4940442;28;20520;-74
2021/11/02 14:27:50;;;;;;;2.07;0.90;;;11.30;76.20;;;;;;4952203;28;20774;-73
2021/11/02 14:30:40;;;;;;;0.87;0.70;;;11.10;76.70;;;;;;4944325;29;20788;-72
2021/11/02 14:33:07;;;;;;;0.70;0.60;;;11.10;77.10;;;;;;4955411;28;20439;-72
2021/11/02 14:36:03;;;;;;;1.00;0.60;;;11.20;76.50;;;;;;4951364;28;20463;-72
2021/11/02 14:38:43;;;;;;;1.30;0.73;;;11.10;76.70;;;;;;4951907;28;20459;-73
2021/11/02 14:41:22;;;;;;;0.70;0.53;;;11.10;77.00;;;;;;4954121;28;20428;-72
2021/11/02 14:43:48;;;;;;;2.20;0.50;;;11.10;77.10;;;;;;4948756;29;20502;-72
2021/11/02 14:46:20;;;;;;;1.33;0.83;;;11.00;77.40;;;;;;4952806;28;20598;-74
2021/11/02 14:48:50;;;;;;;0.90;0.63;;;10.90;77.40;;;;;;4949446;29;20895;-74
2021/11/02 14:51:20;;;;;;;2.43;1.00;;;11.00;77.60;;;;;;4960279;28;20431;-74
2021/11/02 14:53:47;;;;;;;1.30;0.90;;;11.00;77.80;;;;;;4948211;29;20432;-73
2021/11/02 14:56:20;;;;;;;5.50;0.93;;;11.00;78.10;;;;;;4949371;29;20552;-74
2021/11/02 14:58:47;;;;;;;0.90;0.87;;;11.10;78.30;;;;;;4953294;28;20474;-74
2021/11/02 15:01:38;;;;;;;1.33;0.70;;;11.00;78.90;;;;;;4948014;29;20419;-72
2021/11/02 15:04:06;;;;;;;1.17;0.83;;;10.90;79.00;;;;;;4946553;28;20431;-73
2021/11/02 15:06:41;;;;;;;1.00;0.80;;;10.80;80.20;;;;;;4951392;29;20427;-73
2021/11/02 15:09:10;;;;;;;0.70;0.60;;;10.80;80.60;;;;;;4951058;29;20427;-74
2021/11/02 15:11:40;;;;;;;2.10;0.73;;;10.70;81.20;;;;;;4945766;29;20735;-73
2021/11/02 15:14:27;;;;;;;1.20;0.70;;;10.60;81.40;;;;;;4949532;28;20487;-73
2021/11/02 15:16:53;;;;;;;1.37;0.90;;;10.60;81.50;;;;;;4948026;29;20446;-73
2021/11/02 15:19:21;;;;;;;2.20;0.80;;;10.40;80.80;;;;;;4950583;28;21229;-73
2021/11/02 15:21:56;;;;;;;0.90;0.80;;;10.40;80.80;;;;;;4950606;29;20181;-74
2021/11/02 15:24:33;;;;;;;1.10;0.70;;;10.30;80.50;;;;;;4949115;28;20442;-75
2021/11/02 15:27:03;;;;;;;0.90;0.73;;;10.30;80.90;;;;;;4950954;29;20466;-73
2021/11/02 15:29:33;;;;;;;1.00;0.60;;;10.20;81.20;;;;;;4944957;29;20431;-74
2021/11/02 15:32:11;;;;;;;2.70;0.80;;;10.10;82.20;;;;;;4951335;29;20432;-74
2021/11/02 15:34:43;;;;;;;1.50;0.70;;;10.00;82.80;;;;;;4951113;28;20880;-74
2021/11/02 15:37:21;;;;;;;1.67;0.90;;;9.90;84.90;;;;;;4945365;29;20510;-73
2021/11/02 15:39:53;;;;;;;1.30;0.83;;;9.70;86.00;;;;;;4951544;28;20481;-75
2021/11/02 15:42:31;;;;;;;2.30;0.90;;;9.60;86.80;;;;;;4952477;29;20542;-72
2021/11/02 15:45:23;;;;;;;1.10;0.90;;;9.50;87.30;;;;;;4953344;28;20897;-74
2021/11/02 15:47:52;;;;;;;1.40;0.80;;;9.40;88.00;;;;;;4947908;29;20419;-76
2021/11/02 15:50:22;;;;;;;1.57;0.83;;;9.40;88.00;;;;;;4951381;29;20515;-75
2021/11/02 15:52:49;;;;;;;0.60;0.60;;;9.30;88.30;;;;;;4952863;29;20434;-74
2021/11/02 15:55:17;;;;;;;2.80;0.80;;;9.30;88.60;;;;;;4952263;28;20444;-75
2021/11/02 15:57:53;;;;;;;1.40;1.00;;;9.30;88.90;;;;;;4953680;28;20408;-75
2021/11/02 16:00:22;;;;;;;0.90;0.83;;;9.30;89.20;;;;;;4951510;29;20437;-76
2021/11/02 16:02:48;;;;;;;1.63;1.10;;;9.30;88.40;;;;;;4951617;29;20416;-75
2021/11/02 16:05:22;;;;;;;1.17;0.80;;;9.30;88.10;;;;;;4950989;28;20446;-73
2021/11/02 16:07:48;;;;;;;1.63;1.00;;;9.30;87.60;;;;;;4953688;29;20906;-74
2021/11/02 16:10:22;;;;;;;0.80;0.80;;;9.30;87.60;;;;;;4954091;28;20590;-74
2021/11/02 16:12:48;;;;;;;1.10;1.00;;;9.30;87.70;;;;;;4953109;29;20447;-74
2021/11/02 16:15:23;;;;;;;1.67;1.00;;;9.30;88.10;;;;;;4952339;28;20447;-75
2021/11/02 16:17:53;;;;;;;1.10;1.00;;;9.30;88.30;;;;;;4944729;29;20443;-74
2021/11/02 16:20:22;;;;;;;1.40;1.20;;;9.30;88.90;;;;;;4951445;29;20522;-73
2021/11/02 16:23:06;;;;;;;2.70;1.33;;;9.30;89.20;;;;;;4951159;28;20432;-75
2021/11/02 16:25:39;;;;;;;1.50;1.23;;;9.30;89.30;;;;;;4947697;28;20455;-75
2021/11/02 16:28:08;;;;;;;1.63;1.10;;;9.30;89.60;;;;;;4953483;28;20523;-74
2021/11/02 16:30:42;;;;;;;3.63;1.17;;;9.30;89.30;;;;;;4952995;28;20522;-74
2021/11/02 16:33:09;;;;;;;1.30;1.00;;;9.30;89.30;;;;;;4948120;28;20984;-73
2021/11/02 16:35:46;;;;;;;1.07;0.90;;;9.40;89.20;;;;;;4947026;29;20558;-74
2021/11/02 16:38:44;;;;;;;5.13;1.20;;;9.40;89.30;;;;;;4951199;29;20825;-75
2021/11/02 16:41:20;;;;;;;1.97;1.60;;;9.40;89.90;;;;;;4950863;29;20562;-75
2021/11/02 16:43:55;;;;;;;1.13;1.10;;;9.30;90.40;;;;;;4952246;29;20436;-74
2021/11/02 16:46:40;;;;;;;1.67;1.20;;;9.30;90.70;;;;;;4955002;28;20427;-76
2021/11/02 16:49:12;;;;;;;2.60;1.40;;;9.30;91.00;;;;;;4948793;29;20498;-75
2021/11/02 16:51:44;;;;;;;2.40;1.20;;;9.30;91.50;;;;;;4951416;28;20428;-74
2021/11/02 16:54:11;;;;;;;2.10;1.20;;;9.20;91.60;;;;;;4952309;28;20447;-74
2021/11/02 16:57:17;;;;;;;1.67;1.23;;;9.20;92.00;;;;;;4946829;29;20970;-74
2021/11/02 16:59:47;;;;;;;6.70;1.33;;;9.10;92.70;;;;;;4943218;29;20476;-73
2021/11/02 17:02:13;;;;;;;2.90;1.87;;;8.90;93.20;;;;;;4950078;29;20483;-73
2021/11/02 17:04:39;;;;;;;6.70;4.20;;;8.80;93.60;;;;;;4951385;28;20443;-74
2021/11/02 17:07:11;;;;;;;4.10;2.50;;;8.70;93.90;;;;;;4952370;29;20191;-75
2021/11/02 17:09:41;;;;;;;9.03;4.63;;;8.80;94.00;;;;;;4951772;29;20195;-73
2021/11/02 17:12:09;;;;;;;4.30;1.70;;;8.80;93.80;;;;;;4953054;28;20435;-73
2021/11/02 17:14:41;;;;;;;2.80;1.93;;;8.80;93.50;;;;;;4945616;28;20528;-74
2021/11/02 17:17:10;;;;;;;3.80;2.20;;;8.90;93.60;;;;;;4951680;28;20482;-74
2021/11/02 17:19:43;;;;;;;2.23;1.70;;;8.90;93.60;;;;;;4943567;29;20467;-74
2021/11/02 17:22:10;;;;;;;3.53;2.10;;;8.90;93.80;;;;;;4947298;29;20412;-74
2021/11/02 17:24:36;;;;;;;1.87;1.83;;;8.90;93.80;;;;;;4952252;28;20466;-74
2021/11/02 17:27:02;;;;;;;3.73;2.27;;;8.90;93.90;;;;;;4955137;29;20432;-73
2021/11/02 17:29:29;;;;;;;3.03;2.27;;;8.90;94.10;;;;;;4954603;28;20806;-76
2021/11/02 17:31:56;;;;;;;3.67;2.50;;;8.80;94.30;;;;;;4943385;29;20558;-76
2021/11/02 17:34:23;;;;;;;3.93;2.57;;;8.80;94.40;;;;;;4951180;28;20781;-74
2021/11/02 17:36:58;;;;;;;7.43;2.80;;;8.70;94.60;;;;;;4953521;29;20518;-74
2021/11/02 17:39:27;;;;;;;5.07;2.70;;;8.70;94.70;;;;;;4959307;28;20478;-75
2021/11/02 17:41:54;;;;;;;3.47;2.40;;;8.70;94.90;;;;;;4955571;28;20431;-76
2021/11/02 17:44:20;;;;;;;4.70;2.87;;;8.70;94.90;;;;;;4957567;28;20493;-75
2021/11/02 17:46:46;;;;;;;4.27;2.60;;;8.70;95.20;;;;;;4965448;29;20431;-75
2021/11/02 17:49:12;;;;;;;6.47;2.53;;;8.70;95.40;;;;;;4955226;29;20431;-73
2021/11/02 17:51:39;;;;;;;5.10;2.80;;;8.80;95.30;;;;;;4950419;28;20446;-75
2021/11/02 17:54:05;;;;;;;4.80;2.43;;;8.80;95.20;;;;;;4946265;28;20442;-74
2021/11/02 17:56:32;;;;;;;5.87;4.00;;;8.80;95.20;;;;;;4951023;29;20434;-74
2021/11/02 17:58:59;;;;;;;5.27;3.13;;;8.80;95.20;;;;;;4951160;28;20962;-74
2021/11/02 18:01:24;;;;;;;4.23;3.40;;;8.70;95.40;;;;;;4940501;28;20427;-74
2021/11/02 18:03:51;;;;;;;4.43;3.50;;;8.80;95.50;;;;;;4949363;28;20621;-72
2021/11/02 18:06:17;;;;;;;6.27;3.60;;;8.70;95.40;;;;;;4952041;29;20467;-75
2021/11/02 18:08:45;;;;;;;4.97;3.57;;;8.60;95.40;;;;;;4951150;29;20479;-75
2021/11/02 18:11:11;;;;;;;10.80;4.87;;;8.50;95.50;;;;;;4951811;29;20435;-75
2021/11/02 18:13:37;;;;;;;20.00;10.63;;;8.50;95.70;;;;;;4950297;28;20435;-74
2021/11/02 18:16:08;;;;;;;9.50;4.90;;;8.50;95.70;;;;;;4951038;28;20462;-72
2021/11/02 18:18:40;;;;;;;7.70;3.90;;;8.50;95.90;;;;;;4950012;29;20958;-74
2021/11/02 18:21:16;;;;;;;5.43;3.10;;;8.60;95.80;;;;;;4950897;28;20432;-75
2021/11/02 18:23:44;;;;;;;6.80;4.13;;;8.70;95.30;;;;;;4942299;29;20430;-74
2021/11/02 18:26:12;;;;;;;5.60;3.53;;;8.70;94.80;;;;;;4949017;28;20491;-75
2021/11/02 18:28:38;;;;;;;5.60;3.67;;;8.70;94.60;;;;;;4947121;29;21009;-73